createdAt,value
2019-06-07T00:01:17.066Z,7.45
2019-06-07T00:06:25.682Z,6.62
2019-06-07T00:11:32.307Z,6.15
2019-06-07T00:16:38.784Z,4.53
2019-06-07T00:26:58.873Z,6.20
2019-06-07T00:32:02.940Z,7.45
2019-06-07T00:37:11.192Z,4.97
2019-06-07T00:42:20.919Z,8.28
2019-06-07T00:47:26.116Z,7.67
2019-06-07T00:57:40.255Z,9.98
2019-06-07T01:02:48.174Z,8.73
2019-06-07T01:07:54.614Z,7.90
2019-06-07T01:13:00.837Z,7.25
2019-06-07T01:23:55.310Z,12.78
2019-06-07T01:28:24.823Z,17.35
2019-06-07T01:33:49.893Z,15.60
2019-06-07T01:38:38.916Z,9.45
2019-06-07T01:43:46.184Z,15.90
2019-06-07T01:48:52.415Z,13.98
2019-06-07T01:54:48.726Z,14.60
2019-06-07T01:59:06.787Z,10.38
2019-06-07T02:04:13.156Z,8.25
2019-06-07T02:09:20.957Z,6.67
2019-06-07T02:14:29.824Z,8.05
2019-06-07T02:19:35.193Z,10.60
2019-06-07T02:24:41.653Z,10.40
2019-06-07T02:29:48.193Z,18.82
2019-06-07T02:34:54.759Z,13.62
2019-06-07T02:40:00.987Z,10.05
2019-06-07T02:45:07.744Z,15.13
2019-06-07T02:50:15.840Z,12.43
2019-06-07T02:55:24.864Z,10.13
2019-06-07T03:01:05.708Z,12.88
2019-06-07T03:05:52.300Z,18.50
2019-06-07T03:11:00.578Z,10.05
2019-06-07T03:16:08.501Z,7.33
2019-06-07T03:21:18.761Z,9.33
2019-06-07T03:26:27.603Z,12.03
2019-06-07T03:31:41.554Z,12.25
2019-06-07T03:36:43.355Z,13.25
2019-06-07T03:42:05.064Z,10.65
2019-06-07T03:46:57.547Z,8.95
2019-06-07T03:52:05.231Z,8.35
2019-06-07T03:57:11.487Z,10.63
2019-06-07T04:02:17.767Z,14.28
2019-06-07T04:07:24.314Z,15.38
2019-06-07T04:12:34.378Z,10.98
2019-06-07T04:17:48.529Z,13.65
2019-06-07T04:22:47.037Z,12.82
2019-06-07T04:27:52.986Z,7.28
2019-06-07T04:32:59.621Z,10.28
2019-06-07T04:38:05.955Z,11.65
2019-06-07T04:43:12.638Z,9.75
2019-06-07T04:48:21.116Z,12.35
2019-06-07T04:53:27.319Z,10.50
2019-06-07T04:58:33.755Z,20.70
2019-06-07T05:03:44.045Z,13.93
2019-06-07T05:08:48.176Z,15.10
2019-06-07T05:13:54.385Z,13.65
2019-06-07T05:19:00.656Z,14.23
2019-06-07T05:24:10.327Z,11.03
2019-06-07T05:29:15.083Z,12.07
2019-06-07T05:34:21.739Z,14.93
2019-06-07T05:39:28.343Z,18.77
2019-06-07T05:44:36.363Z,13.58
2019-06-07T05:49:46.306Z,14.65
2019-06-07T05:54:51.180Z,22.62
2019-06-07T05:59:57.405Z,31.30
2019-06-07T06:05:03.870Z,31.30
2019-06-07T06:10:10.394Z,19.60
2019-06-07T06:15:16.948Z,24.02
2019-06-07T06:20:23.286Z,21.75
2019-06-07T06:25:33.127Z,25.23
2019-06-07T06:30:38.244Z,22.30
2019-06-07T06:35:48.691Z,22.22
2019-06-07T06:41:12.125Z,18.48
2019-06-07T06:46:01.124Z,22.82
2019-06-07T06:51:07.654Z,17.07
2019-06-07T06:56:13.885Z,26.40
2019-06-07T07:01:20.198Z,17.07
2019-06-07T07:06:27.273Z,17.32
2019-06-07T07:11:33.492Z,16.17
2019-06-07T07:16:42.053Z,20.10
2019-06-07T07:21:52.432Z,23.05
2019-06-07T07:26:58.399Z,18.10
2019-06-07T07:32:04.246Z,22.67
2019-06-07T07:37:10.726Z,19.98
2019-06-07T07:42:21.303Z,17.27
2019-06-07T07:47:24.734Z,16.17
2019-06-07T07:52:30.945Z,28.17
2019-06-07T07:57:37.260Z,19.10
2019-06-07T08:02:43.448Z,18.98
2019-06-07T08:07:53.499Z,22.35
2019-06-07T08:13:21.970Z,21.70
2019-06-07T08:18:06.050Z,27.02
2019-06-07T08:23:12.271Z,26.07
2019-06-07T08:28:18.675Z,17.90
2019-06-07T08:33:26.626Z,24.52
2019-06-07T08:38:46.937Z,25.48
2019-06-07T08:43:41.291Z,20.92
2019-06-07T08:48:47.531Z,20.10
2019-06-07T08:54:15.891Z,17.85
2019-06-07T08:59:10.819Z,20.15
2019-06-07T09:04:11.283Z,24.72
2019-06-07T09:09:17.928Z,28.05
2019-06-07T09:14:24.311Z,25.48
2019-06-07T09:19:30.709Z,31.12
2019-06-07T09:24:37.368Z,31.27
2019-06-07T09:29:44.934Z,29.50
2019-06-07T09:34:51.126Z,23.77
2019-06-07T09:40:05.358Z,34.15
2019-06-07T09:45:08.955Z,25.08
2019-06-07T09:50:13.998Z,29.55
2019-06-07T09:55:24.796Z,27.27
2019-06-07T10:00:44.957Z,28.42
2019-06-07T10:05:37.404Z,38.05
2019-06-07T10:10:43.988Z,39.53
2019-06-07T10:15:53.545Z,36.42
2019-06-07T10:20:59.441Z,39.60
2019-06-07T10:26:06.092Z,40.03
2019-06-07T10:31:12.558Z,42.80
2019-06-07T10:36:19.018Z,40.10
2019-06-07T10:41:25.397Z,52.53
2019-06-07T10:46:31.666Z,47.85
2019-06-07T10:51:37.848Z,40.65
2019-06-07T10:56:44.240Z,42.62
2019-06-07T11:01:50.488Z,44.13
2019-06-07T11:06:56.903Z,29.70
2019-06-07T11:12:04.326Z,34.73
2019-06-07T11:17:11.381Z,34.13
2019-06-07T11:22:18.575Z,30.02
2019-06-07T11:27:24.794Z,33.35
2019-06-07T11:32:30.921Z,29.67
2019-06-07T11:37:37.132Z,26.27
2019-06-07T11:42:43.441Z,25.55
2019-06-07T11:47:49.823Z,31.27
2019-06-07T11:52:56.072Z,27.22
2019-06-07T11:58:02.508Z,19.25
2019-06-07T12:03:09.480Z,25.85
2019-06-07T12:08:16.155Z,17.00
2019-06-07T12:13:22.340Z,19.57
2019-06-07T12:18:28.737Z,21.82
2019-06-07T12:23:34.882Z,26.97
2019-06-07T12:28:41.251Z,31.12
2019-06-07T12:33:47.616Z,30.10
2019-06-07T12:38:53.886Z,33.05
2019-06-07T12:44:00.286Z,31.55
2019-06-07T12:49:06.634Z,28.27
2019-06-07T12:54:13.322Z,26.07
2019-06-07T12:59:20.079Z,31.20
2019-06-07T13:04:27.754Z,30.60
2019-06-07T13:09:36.164Z,36.48
2019-06-07T13:14:42.139Z,22.87
2019-06-07T13:19:48.783Z,24.87
2019-06-07T13:24:55.203Z,28.50
2019-06-07T13:30:09.137Z,25.57
2019-06-07T13:35:09.824Z,25.23
2019-06-07T13:40:16.750Z,21.15
2019-06-07T13:45:24.285Z,27.98
2019-06-07T13:50:30.566Z,27.13
2019-06-07T13:55:36.811Z,19.95
2019-06-07T14:00:43.178Z,26.77
2019-06-07T14:05:49.284Z,32.00
2019-06-07T14:10:55.604Z,24.37
2019-06-07T14:16:01.896Z,24.43
2019-06-07T14:21:08.102Z,30.62
2019-06-07T14:26:14.555Z,28.92
2019-06-07T14:31:22.144Z,26.02
2019-06-07T14:36:28.923Z,29.55
2019-06-07T14:41:35.252Z,25.57
2019-06-07T14:46:41.423Z,28.60
2019-06-07T14:51:47.720Z,19.95
2019-06-07T14:56:53.934Z,23.52
2019-06-07T15:02:00.180Z,24.45
2019-06-07T15:07:07.922Z,28.15
2019-06-07T15:12:24.538Z,25.55
2019-06-07T15:17:22.615Z,23.52
2019-06-07T15:22:30.209Z,28.62
2019-06-07T15:27:37.667Z,32.55
2019-06-07T15:32:44.331Z,24.50
2019-06-07T15:37:50.713Z,28.12
2019-06-07T15:42:56.843Z,28.17
2019-06-07T15:48:03.232Z,26.70
2019-06-07T15:53:09.529Z,26.23
2019-06-07T15:58:16.000Z,19.90
2019-06-07T16:03:22.480Z,25.95
2019-06-07T16:08:28.570Z,22.42
2019-06-07T16:13:35.030Z,23.40
2019-06-07T16:18:44.267Z,21.90
2019-06-07T16:23:50.355Z,24.90
2019-06-07T16:28:57.314Z,18.98
2019-06-07T16:34:03.735Z,30.85
2019-06-07T16:39:11.150Z,26.60
2019-06-07T16:44:17.237Z,24.23
2019-06-07T16:49:23.327Z,17.60
2019-06-07T16:54:30.028Z,27.67
2019-06-07T16:59:36.812Z,20.08
2019-06-07T17:04:43.564Z,19.65
2019-06-07T17:09:50.789Z,20.85
2019-06-07T17:14:57.302Z,16.37
2019-06-07T17:20:03.977Z,27.65
2019-06-07T17:25:10.592Z,16.12
2019-06-07T17:30:17.531Z,16.23
2019-06-07T17:35:23.987Z,19.50
2019-06-07T17:40:30.284Z,18.57
2019-06-07T17:45:36.624Z,15.50
2019-06-07T17:50:47.810Z,18.02
2019-06-07T17:55:53.963Z,12.50
2019-06-07T18:01:00.280Z,17.98
2019-06-07T18:06:07.376Z,25.45
2019-06-07T18:11:13.845Z,14.03
2019-06-07T18:16:20.043Z,18.50
2019-06-07T18:21:26.128Z,20.50
2019-06-07T18:26:32.542Z,19.23
2019-06-07T18:31:38.974Z,23.45
2019-06-07T18:36:45.162Z,15.95
2019-06-07T18:41:53.242Z,22.20
2019-06-07T18:46:59.456Z,21.95
2019-06-07T18:52:15.017Z,22.17
2019-06-07T18:57:21.065Z,20.60
2019-06-07T19:02:27.203Z,20.15
2019-06-07T19:07:33.450Z,19.30
2019-06-07T19:12:40.028Z,19.80
2019-06-07T19:17:46.307Z,21.95
2019-06-07T19:22:52.514Z,22.32
2019-06-07T19:27:59.192Z,24.30
2019-06-07T19:33:05.619Z,23.70
2019-06-07T19:38:12.026Z,19.52
2019-06-07T19:43:18.220Z,19.48
2019-06-07T19:48:24.493Z,20.00
2019-06-07T19:53:31.101Z,20.90
2019-06-07T19:58:37.443Z,19.77
2019-06-07T20:03:44.287Z,21.27
2019-06-07T20:08:50.368Z,18.90
2019-06-07T20:13:56.679Z,20.10
2019-06-07T20:19:03.990Z,20.12
2019-06-07T20:24:24.822Z,24.00
2019-06-07T20:29:25.761Z,18.70
2019-06-07T20:34:30.152Z,19.73
2019-06-07T20:39:36.532Z,25.12
2019-06-07T20:44:42.453Z,21.17
2019-06-07T20:49:48.749Z,23.83
2019-06-07T20:54:54.931Z,24.70
2019-06-07T21:00:10.569Z,21.17
2019-06-07T21:05:10.025Z,30.97
2019-06-07T21:10:16.779Z,28.02
2019-06-07T21:15:23.215Z,24.52
2019-06-07T21:20:29.858Z,19.98
2019-06-07T21:25:36.237Z,17.95
2019-06-07T21:30:42.477Z,19.77
2019-06-07T21:35:48.785Z,23.92
2019-06-07T21:40:55.377Z,19.23
2019-06-07T21:46:07.283Z,15.08
2019-06-07T21:51:10.480Z,18.02
2019-06-07T21:56:17.001Z,18.32
2019-06-07T22:01:29.043Z,17.32
2019-06-07T22:06:35.427Z,23.73
2019-06-07T22:11:41.636Z,18.75
2019-06-07T22:16:48.189Z,19.95
2019-06-07T22:22:02.659Z,19.82
2019-06-07T22:27:02.317Z,19.75
2019-06-07T22:32:08.852Z,17.87
2019-06-07T22:37:17.580Z,20.10
2019-06-07T22:42:22.714Z,19.02
2019-06-07T22:47:28.965Z,21.97
2019-06-07T22:52:34.987Z,22.70
2019-06-07T22:57:56.721Z,19.42
2019-06-07T23:03:02.957Z,26.23
2019-06-07T23:08:09.045Z,26.65
2019-06-07T23:13:15.555Z,22.02
2019-06-07T23:18:21.997Z,16.07
2019-06-07T23:23:28.343Z,22.55
2019-06-07T23:28:34.597Z,18.20
2019-06-07T23:33:40.471Z,12.82
2019-06-07T23:38:46.723Z,20.32
2019-06-07T23:43:53.016Z,17.57
2019-06-07T23:48:59.515Z,18.80
2019-06-07T23:54:05.846Z,16.48
2019-06-07T23:59:12.204Z,17.52
